createdAt,value
2023-03-20T00:00:26.201Z,4.85
2023-03-20T00:02:58.204Z,11.48
2023-03-20T00:05:31.136Z,10.68
2023-03-20T00:08:03.051Z,10.02
2023-03-20T00:10:39.160Z,9.27
2023-03-20T00:13:22.667Z,7.82
2023-03-20T00:15:53.378Z,8.18
2023-03-20T00:18:27.402Z,4.57
2023-03-20T00:20:57.670Z,6.95
2023-03-20T00:23:28.285Z,5.30
2023-03-20T00:25:59.560Z,4.68
2023-03-20T00:28:49.549Z,5.05
2023-03-20T00:31:27.892Z,5.03
2023-03-20T00:34:04.929Z,4.40
2023-03-20T00:36:36.474Z,5.55
2023-03-20T00:39:08.424Z,4.57
2023-03-20T00:41:46.074Z,4.40
2023-03-20T00:44:22.417Z,4.93
2023-03-20T00:46:58.567Z,3.70
2023-03-20T00:49:33.903Z,4.30
2023-03-20T00:52:07.159Z,4.18
2023-03-20T00:54:37.458Z,4.78
2023-03-20T00:57:16.072Z,4.80
2023-03-20T01:00:16.266Z,4.97
2023-03-20T01:02:48.761Z,4.45
2023-03-20T01:05:22.544Z,4.40
2023-03-20T01:07:52.976Z,4.53
2023-03-20T01:10:30.896Z,6.32
2023-03-20T01:13:03.272Z,4.93
2023-03-20T01:15:35.885Z,5.57
2023-03-20T01:18:06.593Z,7.05
2023-03-20T01:20:36.546Z,5.95
2023-03-20T01:23:08.039Z,6.10
2023-03-20T01:25:40.415Z,5.63
2023-03-20T01:28:24.383Z,4.32
2023-03-20T01:30:54.538Z,4.38
2023-03-20T01:33:27.754Z,4.75
2023-03-20T01:36:00.780Z,4.53
2023-03-20T01:38:33.068Z,4.53
2023-03-20T01:41:19.953Z,3.35
2023-03-20T01:43:49.906Z,3.58
2023-03-20T01:46:33.178Z,3.33
2023-03-20T01:49:23.773Z,3.80
2023-03-20T01:51:54.927Z,3.83
2023-03-20T01:54:38.935Z,3.65
2023-03-20T01:57:22.688Z,4.57
2023-03-20T02:00:17.805Z,3.17
2023-03-20T02:02:50.743Z,3.88
2023-03-20T02:05:40.889Z,4.75
2023-03-20T02:08:29.587Z,2.22
2023-03-20T02:11:06.150Z,2.72
2023-03-20T02:13:38.738Z,3.15
2023-03-20T02:16:13.172Z,3.20
2023-03-20T02:19:11.920Z,3.05
2023-03-20T02:22:19.868Z,3.83
2023-03-20T02:25:19.935Z,3.72
2023-03-20T02:28:03.654Z,3.55
2023-03-20T02:30:34.149Z,4.80
2023-03-20T02:33:48.767Z,4.95
2023-03-20T02:36:37.066Z,4.90
2023-03-20T02:39:10.212Z,4.55
2023-03-20T02:41:49.416Z,3.53
2023-03-20T02:44:30.502Z,6.85
2023-03-20T02:47:37.458Z,6.80
2023-03-20T02:50:49.610Z,10.40
2023-03-20T02:53:54.092Z,9.57
2023-03-20T02:57:00.770Z,7.63
2023-03-20T03:00:07.526Z,6.30
2023-03-20T03:02:59.497Z,5.63
2023-03-20T03:08:12.234Z,6.38
2023-03-20T03:10:49.442Z,4.90
2023-03-20T03:13:26.263Z,5.20
2023-03-20T03:16:04.391Z,5.32
2023-03-20T03:18:37.128Z,5.93
2023-03-20T03:21:10.436Z,5.57
2023-03-20T03:23:52.255Z,4.28
2023-03-20T03:26:29.054Z,5.07
2023-03-20T03:29:05.173Z,5.18
2023-03-20T03:31:39.819Z,5.60
2023-03-20T03:34:15.937Z,7.22
2023-03-20T03:37:03.543Z,6.38
2023-03-20T03:39:33.681Z,7.15
2023-03-20T03:42:09.771Z,6.03
2023-03-20T03:45:04.532Z,6.07
2023-03-20T03:48:00.717Z,5.50
2023-03-20T03:51:09.466Z,4.15
2023-03-20T03:54:03.081Z,4.15
2023-03-20T03:56:37.700Z,3.70
2023-03-20T03:59:16.679Z,3.75
2023-03-20T04:01:48.811Z,3.58
2023-03-20T04:04:22.155Z,3.90
2023-03-20T04:06:53.898Z,3.50
2023-03-20T04:09:24.692Z,3.63
2023-03-20T04:11:55.147Z,3.67
2023-03-20T04:14:25.307Z,3.42
2023-03-20T04:16:56.416Z,3.38
2023-03-20T04:19:27.973Z,4.70
2023-03-20T04:21:57.901Z,7.03
2023-03-20T04:24:27.762Z,3.00
2023-03-20T04:26:59.186Z,3.75
2023-03-20T04:29:30.295Z,3.97
2023-03-20T04:32:22.533Z,4.03
2023-03-20T04:35:21.715Z,3.67
2023-03-20T04:38:00.311Z,3.50
2023-03-20T04:40:33.959Z,4.30
2023-03-20T04:43:05.693Z,7.07
2023-03-20T04:45:36.896Z,6.55
2023-03-20T04:48:11.898Z,3.92
2023-03-20T04:50:43.485Z,4.28
2023-03-20T04:53:14.436Z,6.20
2023-03-20T04:55:47.332Z,4.78
2023-03-20T04:58:19.325Z,4.57
2023-03-20T05:00:50.226Z,2.90
2023-03-20T05:03:23.794Z,2.55
2023-03-20T05:05:54.453Z,2.28
2023-03-20T05:08:24.293Z,2.30
2023-03-20T05:10:59.872Z,2.25
2023-03-20T05:13:49.766Z,2.70
2023-03-20T05:16:41.102Z,2.20
2023-03-20T05:19:29.608Z,2.38
2023-03-20T05:22:29.121Z,2.75
2023-03-20T05:25:32.529Z,2.28
2023-03-20T05:28:32.400Z,2.65
2023-03-20T05:31:32.258Z,2.60
2023-03-20T05:34:03.562Z,2.95
2023-03-20T05:36:47.722Z,3.13
2023-03-20T05:39:26.989Z,2.72
2023-03-20T05:42:29.238Z,2.95
2023-03-20T05:45:17.859Z,3.97
2023-03-20T05:48:05.587Z,3.15
2023-03-20T05:50:47.015Z,3.30
2023-03-20T05:53:35.216Z,3.55
2023-03-20T05:56:24.709Z,3.60
2023-03-20T05:59:15.300Z,2.90
2023-03-20T06:02:11.901Z,2.50
2023-03-20T06:04:47.967Z,2.65
2023-03-20T06:07:24.497Z,2.47
2023-03-20T06:10:09.748Z,2.88
2023-03-20T06:12:41.549Z,2.83
2023-03-20T06:15:12.645Z,2.80
2023-03-20T06:17:47.605Z,2.92
2023-03-20T06:20:19.115Z,2.55
2023-03-20T06:22:50.000Z,2.70
2023-03-20T06:25:22.731Z,2.65
2023-03-20T06:27:52.840Z,2.95
2023-03-20T06:30:23.040Z,3.28
2023-03-20T06:32:54.335Z,3.45
2023-03-20T06:35:32.300Z,3.30
2023-03-20T06:38:03.853Z,4.03
2023-03-20T06:40:35.243Z,3.05
2023-03-20T06:43:06.315Z,3.40
2023-03-20T06:45:46.806Z,2.72
2023-03-20T06:48:24.649Z,2.85
2023-03-20T06:50:55.462Z,2.28
2023-03-20T06:53:30.296Z,2.40
2023-03-20T06:56:06.845Z,2.90
2023-03-20T06:58:38.110Z,3.13
2023-03-20T07:01:18.366Z,3.30
2023-03-20T07:03:48.890Z,3.30
2023-03-20T07:06:26.785Z,3.03
2023-03-20T07:08:58.226Z,3.92
2023-03-20T07:11:29.352Z,3.00
2023-03-20T07:14:01.296Z,2.67
2023-03-20T07:16:43.898Z,3.50
2023-03-20T07:19:15.567Z,4.13
2023-03-20T07:21:49.294Z,2.80
2023-03-20T07:24:21.054Z,3.72
2023-03-20T07:26:51.892Z,2.90
2023-03-20T07:29:23.704Z,2.92
2023-03-20T07:31:54.175Z,2.42
2023-03-20T07:34:27.925Z,2.67
2023-03-20T07:36:59.417Z,2.75
2023-03-20T07:39:30.489Z,2.78
2023-03-20T07:42:20.461Z,2.70
2023-03-20T07:45:01.164Z,2.85
2023-03-20T07:47:33.448Z,2.75
2023-03-20T07:50:08.771Z,2.60
2023-03-20T07:52:39.255Z,2.47
2023-03-20T07:55:09.603Z,2.17
2023-03-20T07:57:40.328Z,3.00
2023-03-20T08:00:12.310Z,2.30
2023-03-20T08:02:42.830Z,2.58
2023-03-20T08:05:13.324Z,2.20
2023-03-20T08:07:44.719Z,3.00
2023-03-20T08:10:15.945Z,2.58
2023-03-20T08:12:45.906Z,2.50
2023-03-20T08:15:15.748Z,2.47
2023-03-20T08:17:47.673Z,3.20
2023-03-20T08:20:19.026Z,2.72
2023-03-20T08:22:50.860Z,3.05
2023-03-20T08:25:22.218Z,2.70
2023-03-20T08:27:52.595Z,2.80
2023-03-20T08:30:23.380Z,2.50
2023-03-20T08:32:54.160Z,3.17
2023-03-20T08:35:33.015Z,2.30
2023-03-20T08:38:04.148Z,2.90
2023-03-20T08:40:35.305Z,2.63
2023-03-20T08:43:06.736Z,2.60
2023-03-20T08:45:37.628Z,2.40
2023-03-20T08:48:07.811Z,2.80
2023-03-20T08:50:40.899Z,2.95
2023-03-20T08:53:11.746Z,2.47
2023-03-20T08:55:41.677Z,2.80
2023-03-20T08:58:12.635Z,2.33
2023-03-20T09:00:43.511Z,2.60
2023-03-20T09:03:20.515Z,2.33
2023-03-20T09:05:54.237Z,2.40
2023-03-20T09:08:24.452Z,2.72
2023-03-20T09:10:54.966Z,3.05
2023-03-20T09:13:28.011Z,2.42
2023-03-20T09:15:59.284Z,3.08
2023-03-20T09:18:29.689Z,3.05
2023-03-20T09:21:00.139Z,2.30
2023-03-20T09:23:31.363Z,2.55
2023-03-20T09:26:02.782Z,3.10
2023-03-20T09:28:33.769Z,2.47
2023-03-20T09:31:04.812Z,2.80
2023-03-20T09:33:35.780Z,2.30
2023-03-20T09:36:05.921Z,2.75
2023-03-20T09:38:36.127Z,2.53
2023-03-20T09:41:07.490Z,2.85
2023-03-20T09:44:16.508Z,3.83
2023-03-20T09:47:18.484Z,3.40
2023-03-20T09:50:24.954Z,2.75
2023-03-20T09:53:29.391Z,3.75
2023-03-20T09:56:02.793Z,2.75
2023-03-20T09:58:37.456Z,2.45
2023-03-20T10:01:09.371Z,2.53
2023-03-20T10:03:50.360Z,2.80
2023-03-20T10:06:22.444Z,3.25
2023-03-20T10:08:54.921Z,3.50
2023-03-20T10:11:52.291Z,3.47
2023-03-20T10:14:37.795Z,4.10
2023-03-20T10:17:32.683Z,4.30
2023-03-20T10:20:27.233Z,3.33
2023-03-20T10:23:15.506Z,2.83
2023-03-20T10:25:53.997Z,3.72
2023-03-20T10:28:38.621Z,3.67
2023-03-20T10:31:22.176Z,3.33
2023-03-20T10:34:17.887Z,3.05
2023-03-20T10:37:24.902Z,6.60
2023-03-20T10:40:06.200Z,5.43
2023-03-20T10:42:43.959Z,5.32
2023-03-20T10:45:33.452Z,3.90
2023-03-20T10:48:15.233Z,2.92
2023-03-20T10:50:56.564Z,2.92
2023-03-20T10:54:03.656Z,2.33
2023-03-20T10:56:57.473Z,3.08
2023-03-20T10:59:40.828Z,2.38
2023-03-20T11:02:16.778Z,2.00
2023-03-20T11:04:47.477Z,2.83
2023-03-20T11:07:39.015Z,3.08
2023-03-20T11:10:14.201Z,3.10
2023-03-20T11:12:53.585Z,9.07
2023-03-20T11:15:34.474Z,1.98
2023-03-20T11:18:15.192Z,2.00
2023-03-20T11:20:59.540Z,5.90
2023-03-20T11:23:34.656Z,1.58
2023-03-20T11:26:08.746Z,4.38
2023-03-20T11:28:54.540Z,2.10
2023-03-20T11:31:37.037Z,1.60
2023-03-20T11:34:16.492Z,2.30
2023-03-20T11:37:25.215Z,2.28
2023-03-20T11:40:12.998Z,1.73
2023-03-20T11:43:06.087Z,1.50
2023-03-20T11:45:39.256Z,1.88
2023-03-20T11:48:23.830Z,1.90
2023-03-20T11:51:07.764Z,1.75
2023-03-20T11:54:18.534Z,1.63
2023-03-20T11:57:01.248Z,2.15
2023-03-20T11:59:38.149Z,1.45
2023-03-20T12:02:24.930Z,2.08
2023-03-20T12:04:55.961Z,1.90
2023-03-20T12:07:38.004Z,1.77
2023-03-20T12:10:13.149Z,2.13
2023-03-20T12:13:09.059Z,1.60
2023-03-20T12:15:45.955Z,2.45
2023-03-20T12:18:38.538Z,1.92
2023-03-20T12:21:31.081Z,2.00
2023-03-20T12:24:10.872Z,2.40
2023-03-20T12:26:51.608Z,1.92
2023-03-20T12:29:34.255Z,1.90
2023-03-20T12:32:18.649Z,2.00
2023-03-20T12:35:31.603Z,1.95
2023-03-20T12:38:02.523Z,1.92
2023-03-20T12:40:44.714Z,2.00
2023-03-20T12:43:26.222Z,1.90
2023-03-20T12:46:06.444Z,1.77
2023-03-20T12:48:47.760Z,2.28
2023-03-20T12:51:35.895Z,1.83
2023-03-20T12:54:39.024Z,2.20
2023-03-20T12:57:31.536Z,2.10
2023-03-20T13:00:24.821Z,1.83
2023-03-20T13:03:07.665Z,2.38
2023-03-20T13:05:59.451Z,1.95
2023-03-20T13:08:54.750Z,2.13
2023-03-20T13:11:25.079Z,2.45
2023-03-20T13:14:06.046Z,2.92
2023-03-20T13:16:47.109Z,2.70
2023-03-20T13:19:48.982Z,2.63
2023-03-20T13:22:34.214Z,3.10
2023-03-20T13:25:21.814Z,3.83
2023-03-20T13:28:02.568Z,3.38
2023-03-20T13:30:45.475Z,2.92
2023-03-20T13:33:42.677Z,3.97
2023-03-20T13:36:26.547Z,4.00
2023-03-20T13:39:05.374Z,3.65
2023-03-20T13:41:39.102Z,4.00
2023-03-20T13:44:14.054Z,4.68
2023-03-20T13:46:48.923Z,4.60
2023-03-20T13:49:38.967Z,4.43
2023-03-20T13:52:18.169Z,4.80
2023-03-20T13:55:03.584Z,3.60
2023-03-20T13:57:52.080Z,4.03
2023-03-20T14:00:49.691Z,2.72
2023-03-20T14:03:33.565Z,2.75
2023-03-20T14:06:20.245Z,2.50
2023-03-20T14:08:54.852Z,2.33
2023-03-20T14:14:15.663Z,1.83
2023-03-20T14:16:48.747Z,1.77
2023-03-20T14:19:26.215Z,2.20
2023-03-20T14:21:59.022Z,1.80
2023-03-20T14:24:30.755Z,2.38
2023-03-20T14:27:03.045Z,2.33
2023-03-20T14:29:38.908Z,2.38
2023-03-20T14:32:15.343Z,1.88
2023-03-20T14:35:22.764Z,1.80
2023-03-20T14:38:10.100Z,1.98
2023-03-20T14:41:10.340Z,1.65
2023-03-20T14:44:02.015Z,1.80
2023-03-20T14:46:46.258Z,1.83
2023-03-20T14:49:25.682Z,1.70
2023-03-20T14:52:03.157Z,1.70
2023-03-20T14:54:33.516Z,1.67
2023-03-20T14:57:52.762Z,2.50
2023-03-20T15:00:29.263Z,1.98
2023-03-20T15:03:13.483Z,1.60
2023-03-20T15:05:44.131Z,1.70
2023-03-20T15:08:31.238Z,1.73
2023-03-20T15:11:10.065Z,2.75
2023-03-20T15:13:43.058Z,1.65
2023-03-20T15:16:16.747Z,1.60
2023-03-20T15:18:57.209Z,1.40
2023-03-20T15:21:42.398Z,1.88
2023-03-20T15:24:28.249Z,1.70
2023-03-20T15:27:03.423Z,1.33
2023-03-20T15:29:34.759Z,1.65
2023-03-20T15:32:14.830Z,1.60
2023-03-20T15:34:48.590Z,2.03
2023-03-20T15:37:24.844Z,2.30
2023-03-20T15:40:01.419Z,1.88
2023-03-20T15:42:33.529Z,1.90
2023-03-20T15:45:05.199Z,2.00
2023-03-20T15:47:37.321Z,2.00
2023-03-20T15:50:14.842Z,2.40
2023-03-20T15:52:59.017Z,1.95
2023-03-20T15:55:29.618Z,2.03
2023-03-20T15:58:04.264Z,1.90
2023-03-20T16:00:42.053Z,1.92
2023-03-20T16:03:23.809Z,3.40
2023-03-20T16:05:55.723Z,2.28
2023-03-20T16:08:35.456Z,2.22
2023-03-20T16:11:15.377Z,2.00
2023-03-20T16:13:50.043Z,2.35
2023-03-20T16:18:53.894Z,2.42
2023-03-20T16:21:29.886Z,1.80
2023-03-20T16:24:01.305Z,2.92
2023-03-20T16:26:32.762Z,2.05
2023-03-20T16:29:03.954Z,2.20
2023-03-20T16:31:36.944Z,2.05
2023-03-20T16:34:10.445Z,1.95
2023-03-20T16:36:41.812Z,2.60
2023-03-20T16:39:19.879Z,1.67
2023-03-20T16:42:10.063Z,1.70
2023-03-20T16:44:42.669Z,1.67
2023-03-20T16:47:32.759Z,1.67
2023-03-20T16:50:12.542Z,1.70
2023-03-20T16:52:46.682Z,1.90
2023-03-20T16:55:21.249Z,2.33
2023-03-20T16:57:56.774Z,2.58
2023-03-20T17:00:34.574Z,1.90
2023-03-20T17:03:18.286Z,1.48
2023-03-20T17:05:59.352Z,1.80
2023-03-20T17:08:39.117Z,1.63
2023-03-20T17:11:18.653Z,1.67
2023-03-20T17:13:50.745Z,1.52
2023-03-20T17:16:23.492Z,1.63
2023-03-20T17:19:22.822Z,1.67
2023-03-20T17:21:53.532Z,1.70
2023-03-20T17:24:23.375Z,2.30
2023-03-20T17:26:59.611Z,1.88
2023-03-20T17:29:29.958Z,2.22
2023-03-20T17:32:00.484Z,1.77
2023-03-20T17:34:30.426Z,1.48
2023-03-20T17:37:03.186Z,2.00
2023-03-20T17:39:34.197Z,1.67
2023-03-20T17:42:05.485Z,1.55
2023-03-20T17:44:36.607Z,1.58
2023-03-20T17:47:06.930Z,1.65
2023-03-20T17:49:38.100Z,1.52
2023-03-20T17:52:18.252Z,1.52
2023-03-20T17:54:49.421Z,2.33
2023-03-20T17:57:24.084Z,2.17
2023-03-20T17:59:54.689Z,2.00
2023-03-20T18:02:25.512Z,1.60
2023-03-20T18:04:57.039Z,1.25
2023-03-20T18:07:27.825Z,1.95
2023-03-20T18:09:58.013Z,1.98
2023-03-20T18:12:29.618Z,2.00
2023-03-20T18:15:00.389Z,1.70
2023-03-20T18:17:30.826Z,1.80
2023-03-20T18:20:01.420Z,1.95
2023-03-20T18:22:32.910Z,1.92
2023-03-20T18:25:03.231Z,1.85
2023-03-20T18:27:33.997Z,0.90
2023-03-20T18:30:06.920Z,1.00
2023-03-20T18:32:37.905Z,1.58
2023-03-20T18:35:09.437Z,1.63
2023-03-20T18:37:41.369Z,2.47
2023-03-20T18:40:31.344Z,1.75
2023-03-20T18:43:03.166Z,1.42
2023-03-20T18:45:36.291Z,2.00
2023-03-20T18:48:07.348Z,2.00
2023-03-20T18:50:44.080Z,2.20
2023-03-20T18:53:15.208Z,1.80
2023-03-20T18:55:46.248Z,1.98
2023-03-20T18:58:29.024Z,1.90
2023-03-20T19:01:02.075Z,2.10
2023-03-20T19:03:40.623Z,1.90
2023-03-20T19:06:24.392Z,2.85
2023-03-20T19:08:55.762Z,2.72
2023-03-20T19:11:27.642Z,2.55
2023-03-20T19:13:58.458Z,3.47
2023-03-20T19:16:33.488Z,3.55
2023-03-20T19:19:07.123Z,2.30
2023-03-20T19:21:39.392Z,2.35
2023-03-20T19:24:10.974Z,1.92
2023-03-20T19:26:41.928Z,2.30
2023-03-20T19:29:15.156Z,2.33
2023-03-20T19:31:46.461Z,2.10
2023-03-20T19:34:51.868Z,2.10
2023-03-20T19:37:08.989Z,2.50
2023-03-20T19:39:40.569Z,1.90
2023-03-20T19:42:42.417Z,2.08
2023-03-20T19:45:04.377Z,1.90
2023-03-20T19:47:35.594Z,2.00
2023-03-20T19:50:07.827Z,2.05
2023-03-20T19:52:39.878Z,2.10
2023-03-20T19:55:13.627Z,2.22
2023-03-20T19:57:44.297Z,2.22
2023-03-20T20:03:10.553Z,2.00
2023-03-20T20:05:41.905Z,1.70
2023-03-20T20:08:27.688Z,2.10
2023-03-20T20:11:03.484Z,2.20
2023-03-20T20:13:50.651Z,1.95
2023-03-20T20:16:27.097Z,2.63
2023-03-20T20:18:58.443Z,2.70
2023-03-20T20:24:21.945Z,2.38
2023-03-20T20:27:13.060Z,2.47
2023-03-20T20:29:51.685Z,2.33
2023-03-20T20:32:25.218Z,2.58
2023-03-20T20:40:39.476Z,3.10
2023-03-20T20:43:30.183Z,2.45
2023-03-20T20:46:04.024Z,2.45
2023-03-20T20:48:35.114Z,3.17
2023-03-20T20:51:07.209Z,2.65
2023-03-20T20:53:38.798Z,4.60
2023-03-20T20:56:10.094Z,2.80
2023-03-20T20:58:41.604Z,3.03
2023-03-20T21:01:12.722Z,3.10
2023-03-20T21:03:44.429Z,2.53
2023-03-20T21:06:20.259Z,2.80
2023-03-20T21:08:51.802Z,2.30
2023-03-20T21:11:23.370Z,2.33
2023-03-20T21:13:54.924Z,2.50
2023-03-20T21:16:27.261Z,2.53
2023-03-20T21:18:57.867Z,4.32
2023-03-20T21:21:28.617Z,3.05
2023-03-20T21:24:00.390Z,3.42
2023-03-20T21:26:31.437Z,2.88
2023-03-20T21:29:02.797Z,3.88
2023-03-20T21:31:33.719Z,3.40
2023-03-20T21:34:06.518Z,3.38
2023-03-20T21:36:38.235Z,4.45
2023-03-20T21:39:09.851Z,3.92
2023-03-20T21:41:41.138Z,3.60
2023-03-20T21:44:17.611Z,3.95
2023-03-20T21:47:35.628Z,3.35
2023-03-20T21:58:53.789Z,5.30
2023-03-20T22:01:49.032Z,3.17
2023-03-20T22:05:00.873Z,3.38
2023-03-20T22:07:35.952Z,3.67
2023-03-20T22:13:29.574Z,3.53
2023-03-20T22:15:54.860Z,3.00
2023-03-20T22:21:56.018Z,3.03
2023-03-20T22:30:23.110Z,3.10
2023-03-20T22:33:21.068Z,2.67
2023-03-20T22:36:15.620Z,2.72
2023-03-20T22:42:03.599Z,2.42
2023-03-20T22:44:53.284Z,3.35
2023-03-20T22:46:49.892Z,3.45
2023-03-20T22:49:20.558Z,2.95
2023-03-20T22:52:15.319Z,2.40
2023-03-20T22:54:49.413Z,2.90
2023-03-20T22:57:20.638Z,2.92
2023-03-20T22:59:51.542Z,3.42
2023-03-20T23:02:22.772Z,6.03
2023-03-20T23:04:56.656Z,4.55
2023-03-20T23:07:27.584Z,3.10
2023-03-20T23:09:57.806Z,2.92
2023-03-20T23:12:29.084Z,3.70
2023-03-20T23:15:00.295Z,3.95
2023-03-20T23:17:30.790Z,3.13
2023-03-20T23:20:11.101Z,3.08
2023-03-20T23:22:43.359Z,3.83
2023-03-20T23:25:23.958Z,2.80
2023-03-20T23:28:02.314Z,3.45
2023-03-20T23:30:44.350Z,3.38
2023-03-20T23:33:19.234Z,3.33
2023-03-20T23:35:51.430Z,3.20
2023-03-20T23:38:35.899Z,3.17
2023-03-20T23:41:06.492Z,2.92
2023-03-20T23:43:37.759Z,3.47
2023-03-20T23:46:10.676Z,2.95
2023-03-20T23:48:41.918Z,3.22
2023-03-20T23:51:12.513Z,3.50
2023-03-20T23:53:43.028Z,2.83
2023-03-20T23:56:15.573Z,2.97
2023-03-20T23:58:57.178Z,3.38
